Portada
METAR-TAF:

METAR-TAF

Aeropuertos :

Aeropuerto de Inverness

Inverness, Escocia

latitud: 57-32N, longitud: 004-03W, altitud: 9 m

Observación

El informe se hizo hace 15 minutos, a las 03:20 UTC
Viento 5 kt del norte
Temperatura 8°C
Humedad 87%
Presión 1020 hPa
Visibilidad 10 km o más
Nubes dispersas a una altura de 2800 ft

METAR: EGPE 030320Z 36005KT 9999 SCT028 08/06 Q1020

Hora: 04:35 (03:35 UTC)

Pronóstico

El informe se hizo hace 1 hora y 36 minutos, a las 01:59 UTC
Pronóstico válido del 03 a las 03 UTC al 03 a las 12 UTC
Viento 9 kt del norte-noreste
Visibilidad 10 km o más
Nubes dispersas a una altura de 1800 ft
Probabilidad 30% :
Temporalmente
del 03 a las 08 UTC al 03 a las 12 UTC
Visibilidad: 8000 m
Cielo nuboso a una altura de 1400 ft
lluvia ligera

TAF: EGPE 030159Z 0303/0312 02009KT 9999 SCT018 PROB30 TEMPO 0308/0312 8000 -RA BKN014

Observaciones y pronósticos meteorológicos de más de 4000 aeropuertos (mensajes METAR y TAF).

Los puntos amarillos y rojos representan las estaciones disponibles.

Ponga el ratón en el punto deseado para ver el nombre de la estación.

Haga clic para ver las observaciones y los pronósticos meteorológicos.

Para cambiar el mapa : haga clic en los botones verdes con una cruz de color negro para hacer un zoom, en el botón verde con un guión para alejar o en las flechas verdes para mapas adyacentes.


METAR-TAF: